createdAt,value
2022-10-18T00:02:08.705Z,12.30
2022-10-18T00:04:38.757Z,12.30
2022-10-18T00:07:07.548Z,12.30
2022-10-18T00:09:36.106Z,12.30
2022-10-18T00:12:05.132Z,12.20
2022-10-18T00:14:33.628Z,12.20
2022-10-18T00:17:02.167Z,12.20
2022-10-18T00:19:30.717Z,12.20
2022-10-18T00:22:00.406Z,12.10
2022-10-18T00:24:28.956Z,12.10
2022-10-18T00:26:57.398Z,12.10
2022-10-18T00:29:26.057Z,12.00
2022-10-18T00:31:54.448Z,12.00
2022-10-18T00:34:22.976Z,12.10
2022-10-18T00:36:51.365Z,12.10
2022-10-18T00:39:22.719Z,12.10
2022-10-18T00:41:52.186Z,12.10
2022-10-18T00:44:57.521Z,12.00
2022-10-18T00:47:26.096Z,12.00
2022-10-18T00:49:58.056Z,12.00
2022-10-18T00:52:36.780Z,12.00
2022-10-18T00:55:07.786Z,12.00
2022-10-18T00:57:37.169Z,11.90
2022-10-18T01:00:09.909Z,11.90
2022-10-18T01:02:38.978Z,11.90
2022-10-18T01:05:08.749Z,11.90
2022-10-18T01:07:54.447Z,11.80
2022-10-18T01:10:31.708Z,11.80
2022-10-18T01:13:11.436Z,11.80
2022-10-18T01:15:45.117Z,11.80
2022-10-18T01:18:21.760Z,11.80
2022-10-18T01:21:05.603Z,11.70
2022-10-18T01:23:58.498Z,11.70
2022-10-18T01:26:53.967Z,11.70
2022-10-18T01:29:29.578Z,11.70
2022-10-18T01:32:03.444Z,11.60
2022-10-18T01:34:36.398Z,11.60
2022-10-18T01:37:08.598Z,11.60
2022-10-18T01:39:41.405Z,11.60
2022-10-18T01:42:13.681Z,11.60
2022-10-18T01:44:43.098Z,11.60
2022-10-18T01:47:15.299Z,11.60
2022-10-18T01:49:44.009Z,11.50
2022-10-18T01:52:14.618Z,11.50
2022-10-18T01:54:46.147Z,11.50
2022-10-18T01:57:21.506Z,11.50
2022-10-18T01:59:57.451Z,11.50
2022-10-18T02:02:40.595Z,11.50
2022-10-18T02:05:19.618Z,11.50
2022-10-18T02:08:05.663Z,11.50
2022-10-18T02:10:46.018Z,11.40
2022-10-18T02:13:17.527Z,11.40
2022-10-18T02:15:48.748Z,11.40
2022-10-18T02:18:22.498Z,11.40
2022-10-18T02:20:52.383Z,11.40
2022-10-18T02:23:24.190Z,11.40
2022-10-18T02:25:53.659Z,11.30
2022-10-18T02:30:58.726Z,11.30
2022-10-18T02:33:34.927Z,11.30
2022-10-18T02:36:11.658Z,11.30
2022-10-18T02:38:41.969Z,11.20
2022-10-18T02:41:10.469Z,11.20
2022-10-18T02:43:38.938Z,11.20
2022-10-18T02:46:07.517Z,11.20
2022-10-18T02:48:37.250Z,11.20
2022-10-18T02:51:05.809Z,11.10
2022-10-18T02:53:34.359Z,11.20
2022-10-18T02:56:03.378Z,11.20
2022-10-18T02:58:31.792Z,11.20
2022-10-18T03:01:00.269Z,11.20
2022-10-18T03:03:28.717Z,11.10
2022-10-18T03:05:58.445Z,11.20
2022-10-18T03:08:27.026Z,11.20
2022-10-18T03:10:55.460Z,11.10
2022-10-18T03:13:23.960Z,11.10
2022-10-18T03:15:52.458Z,11.10
2022-10-18T03:18:20.840Z,11.10
2022-10-18T03:20:49.276Z,11.10
2022-10-18T03:23:19.057Z,11.10
2022-10-18T03:25:47.508Z,11.10
2022-10-18T03:28:16.110Z,11.00
2022-10-18T03:30:44.546Z,11.00
2022-10-18T03:33:12.967Z,11.00
2022-10-18T03:35:41.721Z,10.90
2022-10-18T03:38:10.335Z,10.90
2022-10-18T03:40:40.147Z,10.90
2022-10-18T03:43:08.568Z,10.80
2022-10-18T03:45:37.048Z,10.80
2022-10-18T03:48:05.866Z,10.80
2022-10-18T03:50:34.417Z,10.70
2022-10-18T03:53:03.019Z,10.70
2022-10-18T03:55:31.428Z,10.70
2022-10-18T03:58:01.158Z,10.60
2022-10-18T04:00:29.858Z,10.60
2022-10-18T04:02:58.407Z,10.60
2022-10-18T04:05:28.377Z,10.50
2022-10-18T04:07:56.798Z,10.50
2022-10-18T04:10:25.196Z,10.50
2022-10-18T04:12:53.898Z,10.40
2022-10-18T04:15:23.628Z,10.40
2022-10-18T04:17:52.097Z,10.40
2022-10-18T04:20:20.586Z,10.30
2022-10-18T04:22:50.758Z,10.30
2022-10-18T04:25:19.265Z,10.30
2022-10-18T04:27:47.826Z,10.30
2022-10-18T04:30:16.617Z,10.30
2022-10-18T04:32:46.276Z,10.30
2022-10-18T04:35:14.818Z,10.30
2022-10-18T04:37:43.299Z,10.20
2022-10-18T04:40:12.515Z,10.20
2022-10-18T04:42:40.971Z,10.20
2022-10-18T04:45:10.056Z,10.20
2022-10-18T04:47:38.660Z,10.20
2022-10-18T04:50:09.158Z,10.10
2022-10-18T04:52:37.610Z,10.10
2022-10-18T04:55:06.726Z,10.10
2022-10-18T04:57:35.194Z,10.10
2022-10-18T05:00:03.917Z,10.10
2022-10-18T05:02:32.524Z,10.10
2022-10-18T05:05:01.157Z,10.10
2022-10-18T05:07:31.337Z,10.10
2022-10-18T05:09:59.816Z,10.10
2022-10-18T05:12:28.217Z,10.10
2022-10-18T05:14:56.913Z,10.10
2022-10-18T05:17:25.378Z,10.10
2022-10-18T05:19:53.938Z,10.10
2022-10-18T05:22:22.381Z,10.10
2022-10-18T05:24:52.188Z,10.20
2022-10-18T05:27:20.687Z,10.30
2022-10-18T05:29:49.165Z,10.40
2022-10-18T05:32:17.569Z,10.50
2022-10-18T05:34:46.157Z,10.70
2022-10-18T05:37:14.656Z,10.80
2022-10-18T05:39:43.667Z,11.00
2022-10-18T05:42:13.397Z,11.10
2022-10-18T05:44:42.006Z,11.20
2022-10-18T05:47:10.477Z,11.40
2022-10-18T05:49:39.038Z,11.80
2022-10-18T05:52:07.510Z,12.30
2022-10-18T05:54:36.028Z,12.80
2022-10-18T05:57:04.517Z,13.40
2022-10-18T05:59:34.437Z,13.90
2022-10-18T06:02:03.468Z,14.50
2022-10-18T06:04:32.048Z,15.00
2022-10-18T06:07:00.397Z,15.40
2022-10-18T06:09:30.711Z,15.90
2022-10-18T06:11:59.177Z,16.30
2022-10-18T06:14:27.778Z,16.80
2022-10-18T06:16:57.619Z,17.30
2022-10-18T06:19:26.247Z,17.70
2022-10-18T06:21:54.622Z,18.10
2022-10-18T06:24:23.329Z,18.60
2022-10-18T06:26:51.719Z,19.00
2022-10-18T06:29:20.207Z,19.30
2022-10-18T06:31:48.617Z,19.60
2022-10-18T06:34:18.486Z,20.00
2022-10-18T06:36:46.897Z,20.30
2022-10-18T06:39:15.457Z,20.60
2022-10-18T06:41:43.848Z,20.90
2022-10-18T06:44:21.048Z,21.30
2022-10-18T06:46:50.167Z,21.60
2022-10-18T06:49:20.507Z,22.00
2022-10-18T06:51:48.974Z,22.30
2022-10-18T06:54:19.148Z,22.60
2022-10-18T06:56:47.939Z,22.90
2022-10-18T06:59:16.698Z,23.20
2022-10-18T07:01:45.229Z,23.50
2022-10-18T07:04:13.900Z,23.70
2022-10-18T07:06:43.737Z,23.80
2022-10-18T07:09:12.470Z,24.00
2022-10-18T07:11:40.896Z,24.20
2022-10-18T07:14:12.710Z,24.20
2022-10-18T07:16:44.610Z,24.40
2022-10-18T07:19:13.979Z,24.60
2022-10-18T07:21:43.837Z,24.80
2022-10-18T07:24:12.368Z,25.00
2022-10-18T07:26:42.499Z,25.20
2022-10-18T07:29:13.328Z,25.30
2022-10-18T07:31:41.926Z,25.40
2022-10-18T07:34:13.912Z,25.50
2022-10-18T07:36:43.787Z,25.60
2022-10-18T07:39:12.436Z,25.60
2022-10-18T07:41:41.206Z,25.70
2022-10-18T07:44:10.157Z,25.90
2022-10-18T07:46:38.580Z,26.10
2022-10-18T07:49:07.196Z,26.20
2022-10-18T07:51:36.167Z,26.30
2022-10-18T07:54:06.126Z,26.30
2022-10-18T07:56:34.529Z,26.40
2022-10-18T07:59:03.121Z,26.40
2022-10-18T08:01:31.647Z,26.50
2022-10-18T08:04:06.117Z,26.60
2022-10-18T08:06:35.946Z,26.70
2022-10-18T08:09:05.960Z,26.70
2022-10-18T08:11:34.817Z,26.70
2022-10-18T08:14:03.353Z,26.80
2022-10-18T08:19:01.429Z,26.90
2022-10-18T08:21:29.867Z,27.00
2022-10-18T08:23:58.382Z,27.00
2022-10-18T08:26:28.165Z,27.20
2022-10-18T08:29:17.580Z,27.20
2022-10-18T08:31:45.077Z,27.30
2022-10-18T08:34:17.297Z,27.50
2022-10-18T08:36:48.066Z,27.70
2022-10-18T08:39:16.738Z,27.80
2022-10-18T08:42:03.479Z,27.90
2022-10-18T08:44:34.046Z,28.00
2022-10-18T08:47:06.875Z,28.00
2022-10-18T08:49:46.638Z,28.00
2022-10-18T08:52:30.442Z,28.10
2022-10-18T08:55:04.017Z,28.30
2022-10-18T08:57:34.413Z,28.50
2022-10-18T09:00:04.400Z,28.50
2022-10-18T09:02:43.389Z,28.60
2022-10-18T09:05:23.870Z,28.80
2022-10-18T09:08:10.368Z,28.80
2022-10-18T09:10:46.131Z,28.90
2022-10-18T09:13:41.999Z,28.90
2022-10-18T09:16:14.358Z,29.10
2022-10-18T09:18:52.777Z,29.20
2022-10-18T09:21:24.449Z,29.30
2022-10-18T09:24:01.817Z,29.40
2022-10-18T09:26:35.887Z,29.50
2022-10-18T09:31:53.831Z,29.60
2022-10-18T09:34:33.303Z,29.70
2022-10-18T09:37:01.997Z,30.00
2022-10-18T09:39:33.758Z,30.00
2022-10-18T09:42:07.005Z,30.20
2022-10-18T09:44:40.747Z,30.20
2022-10-18T09:47:16.853Z,30.20
2022-10-18T09:49:48.661Z,30.30
2022-10-18T09:52:20.876Z,30.30
2022-10-18T09:54:55.518Z,30.30
2022-10-18T09:57:30.488Z,30.30
2022-10-18T10:00:03.551Z,30.50
2022-10-18T10:02:33.430Z,30.50
2022-10-18T10:05:02.200Z,30.50
2022-10-18T10:07:42.217Z,30.40
2022-10-18T10:10:18.162Z,30.40
2022-10-18T10:12:47.018Z,30.30
2022-10-18T10:15:22.753Z,30.10
2022-10-18T10:17:57.357Z,30.20
2022-10-18T10:20:31.628Z,30.20
2022-10-18T10:23:08.505Z,30.10
2022-10-18T10:25:39.376Z,30.10
2022-10-18T10:28:14.195Z,30.00
2022-10-18T10:30:44.188Z,30.10
2022-10-18T10:33:34.046Z,30.00
2022-10-18T10:36:04.713Z,30.10
2022-10-18T10:38:33.301Z,30.00
2022-10-18T10:41:01.777Z,30.00
2022-10-18T10:43:40.624Z,30.00
2022-10-18T10:46:13.163Z,30.10
2022-10-18T10:48:48.708Z,30.00
2022-10-18T10:51:29.091Z,29.90
2022-10-18T10:54:03.095Z,29.90
2022-10-18T10:56:33.238Z,29.80
2022-10-18T10:59:11.295Z,29.90
2022-10-18T11:01:41.817Z,29.80
2022-10-18T11:04:28.468Z,29.80
2022-10-18T11:07:08.058Z,30.00
2022-10-18T11:09:59.696Z,30.00
2022-10-18T11:12:34.948Z,30.00
2022-10-18T11:15:21.887Z,29.90
2022-10-18T11:18:03.702Z,29.90
2022-10-18T11:20:38.019Z,29.90
2022-10-18T11:23:09.679Z,29.90
2022-10-18T11:26:00.977Z,29.90
2022-10-18T11:28:43.284Z,29.90
2022-10-18T11:31:19.069Z,29.90
2022-10-18T11:34:10.121Z,29.80
2022-10-18T11:36:54.732Z,29.70
2022-10-18T11:39:31.108Z,29.70
2022-10-18T11:42:07.756Z,29.60
2022-10-18T11:44:46.868Z,29.70
2022-10-18T11:47:24.419Z,29.90
2022-10-18T11:50:04.087Z,30.00
2022-10-18T11:52:42.812Z,30.10
2022-10-18T11:55:35.491Z,30.10
2022-10-18T11:58:19.398Z,30.20
2022-10-18T12:00:52.192Z,30.10
2022-10-18T12:03:39.441Z,30.10
2022-10-18T12:06:16.362Z,30.20
2022-10-18T12:08:48.547Z,30.40
2022-10-18T12:11:22.153Z,30.50
2022-10-18T12:13:53.707Z,30.70
2022-10-18T12:16:45.574Z,30.90
2022-10-18T12:19:23.563Z,31.10
2022-10-18T12:21:58.739Z,31.20
2022-10-18T12:24:31.267Z,31.30
2022-10-18T12:27:01.926Z,31.40
2022-10-18T12:29:38.432Z,31.50
2022-10-18T12:32:11.252Z,31.60
2022-10-18T12:34:44.704Z,31.70
2022-10-18T12:37:52.739Z,31.90
2022-10-18T12:40:24.909Z,32.10
2022-10-18T12:42:54.533Z,32.10
2022-10-18T12:45:29.080Z,32.30
2022-10-18T12:48:01.358Z,32.40
2022-10-18T12:50:37.271Z,32.40
2022-10-18T12:53:17.457Z,32.30
2022-10-18T12:55:47.422Z,32.10
2022-10-18T12:58:28.333Z,31.90
2022-10-18T13:01:03.032Z,31.80
2022-10-18T13:04:00.682Z,31.80
2022-10-18T13:07:08.015Z,31.90
2022-10-18T13:09:40.028Z,32.10
2022-10-18T13:12:41.317Z,32.30
2022-10-18T13:15:34.207Z,32.40
2022-10-18T13:18:11.299Z,32.40
2022-10-18T13:20:42.990Z,32.40
2022-10-18T13:23:25.009Z,32.40
2022-10-18T13:26:02.509Z,32.40
2022-10-18T13:28:37.706Z,32.40
2022-10-18T13:31:20.387Z,32.50
2022-10-18T13:33:49.178Z,32.60
2022-10-18T13:36:26.157Z,32.60
2022-10-18T13:39:03.417Z,32.60
2022-10-18T13:41:57.563Z,32.60
2022-10-18T13:44:30.519Z,32.50
2022-10-18T13:47:36.230Z,32.30
2022-10-18T13:50:32.128Z,32.40
2022-10-18T13:53:36.557Z,32.40
2022-10-18T13:56:31.719Z,32.40
2022-10-18T13:59:17.001Z,32.40
2022-10-18T14:02:00.602Z,32.40
2022-10-18T14:04:48.128Z,32.40
2022-10-18T14:07:20.339Z,32.40
2022-10-18T14:09:55.189Z,32.60
2022-10-18T14:12:30.574Z,32.60
2022-10-18T14:15:06.771Z,32.60
2022-10-18T14:17:43.095Z,32.70
2022-10-18T14:20:27.362Z,32.70
2022-10-18T14:23:05.266Z,32.80
2022-10-18T14:25:36.662Z,32.80
2022-10-18T14:28:13.556Z,32.80
2022-10-18T14:30:57.729Z,32.90
2022-10-18T14:33:33.298Z,33.00
2022-10-18T14:36:08.146Z,32.90
2022-10-18T14:38:45.647Z,32.90
2022-10-18T14:41:17.600Z,32.80
2022-10-18T14:43:46.696Z,32.70
2022-10-18T14:46:27.262Z,32.60
2022-10-18T14:49:00.207Z,32.40
2022-10-18T14:51:31.209Z,32.10
2022-10-18T14:53:59.931Z,31.80
2022-10-18T14:56:31.925Z,31.60
2022-10-18T14:59:03.990Z,31.40
2022-10-18T15:01:36.459Z,31.20
2022-10-18T15:04:09.291Z,31.00
2022-10-18T15:06:37.717Z,30.70
2022-10-18T15:09:07.600Z,30.50
2022-10-18T15:11:36.358Z,30.10
2022-10-18T15:14:08.706Z,29.60
2022-10-18T15:16:39.649Z,29.00
2022-10-18T15:19:25.925Z,28.30
2022-10-18T15:22:13.650Z,27.60
2022-10-18T15:24:45.057Z,26.80
2022-10-18T15:27:21.215Z,26.10
2022-10-18T15:29:49.917Z,25.40
2022-10-18T15:32:26.268Z,24.80
2022-10-18T15:34:55.286Z,24.30
2022-10-18T15:37:34.135Z,23.80
2022-10-18T15:40:35.653Z,23.40
2022-10-18T15:43:07.055Z,22.90
2022-10-18T15:45:38.541Z,22.50
2022-10-18T15:48:22.847Z,22.00
2022-10-18T15:50:53.065Z,21.70
2022-10-18T15:53:46.849Z,21.30
2022-10-18T15:56:31.216Z,21.00
2022-10-18T15:59:04.113Z,20.60
2022-10-18T16:01:38.185Z,20.30
2022-10-18T16:04:15.206Z,20.10
2022-10-18T16:06:43.658Z,19.80
2022-10-18T16:09:16.298Z,19.60
2022-10-18T16:11:45.472Z,19.40
2022-10-18T16:14:14.595Z,19.20
2022-10-18T16:16:43.138Z,19.00
2022-10-18T16:19:16.046Z,18.80
2022-10-18T16:21:44.649Z,18.70
2022-10-18T16:24:13.099Z,18.50
2022-10-18T16:26:41.516Z,18.40
2022-10-18T16:29:14.415Z,18.20
2022-10-18T16:31:42.998Z,18.00
2022-10-18T16:34:14.777Z,17.90
2022-10-18T16:36:43.255Z,17.80
2022-10-18T16:39:16.561Z,17.60
2022-10-18T16:41:45.100Z,17.50
2022-10-18T16:44:13.999Z,17.30
2022-10-18T16:46:42.628Z,17.20
2022-10-18T16:51:48.517Z,16.90
2022-10-18T16:54:16.917Z,16.80
2022-10-18T16:56:46.806Z,16.70
2022-10-18T16:59:23.178Z,16.60
2022-10-18T17:01:51.621Z,16.60
2022-10-18T17:04:21.457Z,16.50
2022-10-18T17:06:50.167Z,16.40
2022-10-18T17:09:18.566Z,16.30
2022-10-18T17:11:48.292Z,16.30
2022-10-18T17:14:17.018Z,16.20
2022-10-18T17:16:48.289Z,16.10
2022-10-18T17:19:22.716Z,16.00
2022-10-18T17:21:51.147Z,16.00
2022-10-18T17:24:19.610Z,15.90
2022-10-18T17:26:48.085Z,15.80
2022-10-18T17:29:16.567Z,15.70
2022-10-18T17:31:45.017Z,15.70
2022-10-18T17:34:16.500Z,15.60
2022-10-18T17:36:50.028Z,15.50
2022-10-18T17:39:18.488Z,15.40
2022-10-18T17:41:46.927Z,15.30
2022-10-18T17:44:15.481Z,15.30
2022-10-18T17:46:43.935Z,15.20
2022-10-18T17:49:14.080Z,15.20
2022-10-18T17:51:43.016Z,15.20
2022-10-18T17:54:13.087Z,15.10
2022-10-18T17:56:41.856Z,15.10
2022-10-18T17:59:10.580Z,15.10
2022-10-18T18:01:39.202Z,15.00
2022-10-18T18:04:07.848Z,14.90
2022-10-18T18:06:39.110Z,14.90
2022-10-18T18:09:09.662Z,14.80
2022-10-18T18:11:41.402Z,14.80
2022-10-18T18:14:10.311Z,14.70
2022-10-18T18:16:39.827Z,14.60
2022-10-18T18:19:10.004Z,14.60
2022-10-18T18:21:42.368Z,14.60
2022-10-18T18:24:11.227Z,14.50
2022-10-18T18:26:43.522Z,14.50
2022-10-18T18:29:13.937Z,14.40
2022-10-18T18:31:44.035Z,14.40
2022-10-18T18:34:12.937Z,14.40
2022-10-18T18:36:41.752Z,14.30
2022-10-18T18:39:17.268Z,14.30
2022-10-18T18:41:48.396Z,14.20
2022-10-18T18:44:16.975Z,14.20
2022-10-18T18:46:45.438Z,14.20
2022-10-18T18:49:14.999Z,14.10
2022-10-18T18:51:44.163Z,14.10
2022-10-18T18:54:14.807Z,14.10
2022-10-18T18:56:43.778Z,14.10
2022-10-18T18:59:15.457Z,14.00
2022-10-18T19:01:44.666Z,14.00
2022-10-18T19:04:13.237Z,14.00
2022-10-18T19:06:43.229Z,14.00
2022-10-18T19:09:19.248Z,14.00
2022-10-18T19:11:49.747Z,13.90
2022-10-18T19:14:20.138Z,13.90
2022-10-18T19:16:49.441Z,13.80
2022-10-18T19:19:19.929Z,13.80
2022-10-18T19:21:51.407Z,13.80
2022-10-18T19:24:20.720Z,13.70
2022-10-18T19:26:51.616Z,13.70
2022-10-18T19:29:23.496Z,13.60
2022-10-18T19:31:53.219Z,13.60
2022-10-18T19:34:22.888Z,13.50
2022-10-18T19:36:52.490Z,13.50
2022-10-18T19:39:22.958Z,13.50
2022-10-18T19:41:55.179Z,13.40
2022-10-18T19:44:27.496Z,13.40
2022-10-18T19:46:56.969Z,13.30
2022-10-18T19:49:26.123Z,13.30
2022-10-18T19:51:54.529Z,13.20
2022-10-18T19:54:23.081Z,13.20
2022-10-18T19:56:51.588Z,13.20
2022-10-18T19:59:21.349Z,13.10
2022-10-18T20:01:51.397Z,13.10
2022-10-18T20:04:20.043Z,13.00
2022-10-18T20:06:48.549Z,12.90
2022-10-18T20:09:20.422Z,12.90
2022-10-18T20:11:49.903Z,12.80
2022-10-18T20:14:18.637Z,12.80
2022-10-18T20:16:47.628Z,12.70
2022-10-18T20:19:17.370Z,12.70
2022-10-18T20:21:45.830Z,12.70
2022-10-18T20:24:14.276Z,12.60
2022-10-18T20:26:43.904Z,12.60
2022-10-18T20:29:12.535Z,12.60
2022-10-18T20:31:40.966Z,12.50
2022-10-18T20:34:12.256Z,12.50
2022-10-18T20:36:43.014Z,12.50
2022-10-18T20:39:11.416Z,12.50
2022-10-18T20:41:41.419Z,12.50
2022-10-18T20:44:14.258Z,12.50
2022-10-18T20:46:42.976Z,12.40
2022-10-18T20:49:14.855Z,12.40
2022-10-18T20:51:44.814Z,12.40
2022-10-18T20:54:13.870Z,12.40
2022-10-18T20:56:42.350Z,12.40
2022-10-18T20:59:11.631Z,12.30
2022-10-18T21:01:40.943Z,12.30
2022-10-18T21:04:10.504Z,12.30
2022-10-18T21:06:41.397Z,12.20
2022-10-18T21:09:14.400Z,12.20
2022-10-18T21:11:45.085Z,12.20
2022-10-18T21:14:16.133Z,12.20
2022-10-18T21:16:44.782Z,12.10
2022-10-18T21:19:15.999Z,12.10
2022-10-18T21:21:46.289Z,12.10
2022-10-18T21:24:16.227Z,12.00
2022-10-18T21:26:45.051Z,12.00
2022-10-18T21:29:18.145Z,12.00
2022-10-18T21:31:49.447Z,12.00
2022-10-18T21:34:18.859Z,12.00
2022-10-18T21:36:48.555Z,12.00
2022-10-18T21:39:20.189Z,11.90
2022-10-18T21:41:49.416Z,11.90
2022-10-18T21:44:18.567Z,11.90
2022-10-18T21:46:47.769Z,11.90
2022-10-18T21:49:16.821Z,11.90
2022-10-18T21:51:45.800Z,11.90
2022-10-18T21:54:17.301Z,11.90
2022-10-18T21:56:45.677Z,11.80
2022-10-18T21:59:14.925Z,11.80
2022-10-18T22:01:44.660Z,11.80
2022-10-18T22:04:21.188Z,11.80
2022-10-18T22:06:50.143Z,11.80
2022-10-18T22:09:21.203Z,11.80
2022-10-18T22:11:52.411Z,11.80
2022-10-18T22:14:21.178Z,11.80
2022-10-18T22:16:49.772Z,11.80
2022-10-18T22:19:18.261Z,11.80
2022-10-18T22:21:46.709Z,11.90
2022-10-18T22:24:15.358Z,11.90
2022-10-18T22:26:46.359Z,11.90
2022-10-18T22:29:16.640Z,12.00
2022-10-18T22:31:47.898Z,12.00
2022-10-18T22:34:18.231Z,12.00
2022-10-18T22:36:47.251Z,12.00
2022-10-18T22:39:16.792Z,12.10
2022-10-18T22:41:47.491Z,12.10
2022-10-18T22:44:16.534Z,12.10
2022-10-18T22:46:45.028Z,12.10
2022-10-18T22:49:13.960Z,12.10
2022-10-18T22:51:42.423Z,12.10
2022-10-18T22:54:11.284Z,12.10
2022-10-18T22:56:39.739Z,12.20
2022-10-18T22:59:09.522Z,12.10
2022-10-18T23:01:38.818Z,12.20
2022-10-18T23:04:07.359Z,12.20
2022-10-18T23:06:37.229Z,12.20
2022-10-18T23:09:08.644Z,12.30
2022-10-18T23:11:37.972Z,12.30
2022-10-18T23:14:07.497Z,12.30
2022-10-18T23:16:38.264Z,12.40
2022-10-18T23:19:06.699Z,12.40
2022-10-18T23:21:35.577Z,12.50
2022-10-18T23:24:04.565Z,12.50
2022-10-18T23:26:33.267Z,12.60
2022-10-18T23:29:01.854Z,12.60
2022-10-18T23:31:31.999Z,12.70
2022-10-18T23:34:04.187Z,12.80
2022-10-18T23:36:33.809Z,12.80
2022-10-18T23:39:02.649Z,12.90
2022-10-18T23:41:31.448Z,12.90
2022-10-18T23:44:00.006Z,12.90
2022-10-18T23:46:28.379Z,12.90
2022-10-18T23:48:56.778Z,12.90
2022-10-18T23:51:26.425Z,12.90
2022-10-18T23:53:54.907Z,12.90
2022-10-18T23:56:23.327Z,12.90
2022-10-18T23:58:51.847Z,12.90
